createdAt,value
2023-05-02T00:00:41.524Z,9.40
2023-05-02T00:03:09.721Z,9.40
2023-05-02T00:05:37.812Z,9.40
2023-05-02T00:08:07.203Z,9.40
2023-05-02T00:10:35.229Z,9.30
2023-05-02T00:13:03.215Z,9.30
2023-05-02T00:15:31.162Z,9.20
2023-05-02T00:17:59.274Z,9.10
2023-05-02T00:20:27.466Z,9.10
2023-05-02T00:22:56.848Z,9.20
2023-05-02T00:25:26.221Z,9.10
2023-05-02T00:27:54.230Z,9.00
2023-05-02T00:30:22.146Z,9.10
2023-05-02T00:32:50.233Z,9.00
2023-05-02T00:35:18.262Z,9.00
2023-05-02T00:37:46.232Z,9.00
2023-05-02T00:40:15.089Z,9.10
2023-05-02T00:42:44.619Z,9.10
2023-05-02T00:45:12.825Z,9.00
2023-05-02T00:47:40.908Z,8.90
2023-05-02T00:50:09.846Z,8.90
2023-05-02T00:52:38.827Z,8.90
2023-05-02T00:55:07.980Z,9.00
2023-05-02T00:57:35.997Z,9.00
2023-05-02T01:00:06.830Z,9.00
2023-05-02T01:02:42.416Z,9.10
2023-05-02T01:05:16.776Z,9.00
2023-05-02T01:08:00.714Z,9.10
2023-05-02T01:10:38.940Z,9.10
2023-05-02T01:13:10.907Z,9.20
2023-05-02T01:15:42.118Z,9.20
2023-05-02T01:18:13.273Z,9.10
2023-05-02T01:20:45.952Z,9.00
2023-05-02T01:23:24.536Z,8.90
2023-05-02T01:26:07.845Z,9.00
2023-05-02T01:28:58.391Z,9.10
2023-05-02T01:31:29.645Z,9.00
2023-05-02T01:33:58.970Z,8.90
2023-05-02T01:36:31.203Z,9.00
2023-05-02T01:39:01.526Z,8.90
2023-05-02T01:41:32.150Z,8.90
2023-05-02T01:44:02.740Z,8.90
2023-05-02T01:46:36.653Z,8.90
2023-05-02T01:49:07.700Z,8.90
2023-05-02T01:51:38.891Z,9.00
2023-05-02T01:54:10.125Z,8.90
2023-05-02T01:56:40.324Z,8.80
2023-05-02T01:59:10.600Z,8.80
2023-05-02T02:01:43.635Z,8.80
2023-05-02T02:04:13.889Z,8.70
2023-05-02T02:06:47.199Z,8.70
2023-05-02T02:09:15.583Z,8.70
2023-05-02T02:11:48.395Z,8.80
2023-05-02T02:14:21.274Z,8.90
2023-05-02T02:16:54.797Z,8.70
2023-05-02T02:19:24.621Z,8.70
2023-05-02T02:21:55.079Z,8.80
2023-05-02T02:24:25.095Z,8.70
2023-05-02T02:26:53.276Z,8.70
2023-05-02T02:29:21.308Z,8.60
2023-05-02T02:31:50.724Z,8.60
2023-05-02T02:34:18.779Z,8.60
2023-05-02T02:36:49.712Z,8.60
2023-05-02T02:39:36.954Z,8.50
2023-05-02T02:42:13.284Z,8.50
2023-05-02T02:44:53.635Z,8.50
2023-05-02T02:47:30.397Z,8.50
2023-05-02T02:50:10.866Z,8.50
2023-05-02T02:52:49.843Z,8.40
2023-05-02T02:55:29.744Z,8.40
2023-05-02T02:58:03.561Z,8.40
2023-05-02T03:00:33.708Z,8.30
2023-05-02T03:03:03.138Z,8.30
2023-05-02T03:05:34.068Z,8.50
2023-05-02T03:08:02.239Z,8.30
2023-05-02T03:10:30.230Z,8.30
2023-05-02T03:12:58.206Z,8.20
2023-05-02T03:16:08.565Z,8.00
2023-05-02T03:18:38.022Z,8.10
2023-05-02T03:21:06.347Z,8.10
2023-05-02T03:23:34.287Z,8.10
2023-05-02T03:26:02.936Z,8.00
2023-05-02T03:28:30.897Z,8.00
2023-05-02T03:30:58.989Z,8.00
2023-05-02T03:33:27.029Z,8.00
2023-05-02T03:35:56.481Z,8.30
2023-05-02T03:38:24.639Z,8.10
2023-05-02T03:40:52.647Z,8.30
2023-05-02T03:43:20.699Z,8.10
2023-05-02T03:45:48.948Z,8.10
2023-05-02T03:48:17.027Z,8.10
2023-05-02T03:50:45.004Z,8.20
2023-05-02T03:53:16.192Z,8.20
2023-05-02T03:55:44.555Z,8.30
2023-05-02T03:58:12.997Z,8.30
2023-05-02T04:00:40.954Z,8.40
2023-05-02T04:03:09.077Z,8.30
2023-05-02T04:05:37.138Z,8.40
2023-05-02T04:08:05.360Z,8.50
2023-05-02T04:10:35.103Z,8.50
2023-05-02T04:13:03.558Z,8.40
2023-05-02T04:15:32.058Z,8.50
2023-05-02T04:18:00.253Z,8.50
2023-05-02T04:20:28.449Z,8.50
2023-05-02T04:22:56.695Z,8.70
2023-05-02T04:25:24.723Z,8.70
2023-05-02T04:27:54.243Z,8.70
2023-05-02T04:30:22.662Z,8.70
2023-05-02T04:32:51.101Z,8.60
2023-05-02T04:35:19.384Z,8.60
2023-05-02T04:37:47.316Z,8.60
2023-05-02T04:40:15.563Z,8.70
2023-05-02T04:42:43.551Z,8.70
2023-05-02T04:45:13.563Z,8.70
2023-05-02T04:47:41.580Z,8.70
2023-05-02T04:50:10.949Z,8.70
2023-05-02T04:52:38.996Z,8.70
2023-05-02T04:55:07.999Z,8.60
2023-05-02T04:57:36.003Z,8.60
2023-05-02T05:00:04.343Z,8.70
2023-05-02T05:02:33.766Z,8.70
2023-05-02T05:05:03.223Z,8.80
2023-05-02T05:07:31.331Z,8.80
2023-05-02T05:09:59.528Z,9.00
2023-05-02T05:12:27.762Z,8.90
2023-05-02T05:14:55.834Z,9.00
2023-05-02T05:17:23.909Z,9.00
2023-05-02T05:19:53.388Z,9.10
2023-05-02T05:22:21.653Z,8.90
2023-05-02T05:24:53.906Z,9.00
2023-05-02T05:27:22.177Z,9.10
2023-05-02T05:29:50.202Z,9.20
2023-05-02T05:32:18.364Z,9.30
2023-05-02T05:34:46.676Z,9.20
2023-05-02T05:37:15.984Z,9.30
2023-05-02T05:39:44.014Z,9.30
2023-05-02T05:42:12.795Z,9.30
2023-05-02T05:44:40.867Z,9.20
2023-05-02T05:47:09.098Z,9.30
2023-05-02T05:49:38.838Z,9.40
2023-05-02T05:52:07.162Z,9.40
2023-05-02T05:54:36.670Z,9.50
2023-05-02T05:57:04.840Z,9.60
2023-05-02T05:59:35.989Z,9.60
2023-05-02T06:02:04.273Z,9.60
2023-05-02T06:04:32.499Z,9.60
2023-05-02T06:07:00.773Z,9.60
2023-05-02T06:09:28.735Z,9.60
2023-05-02T06:11:58.296Z,9.70
2023-05-02T06:14:26.812Z,9.60
2023-05-02T06:16:54.843Z,9.70
2023-05-02T06:19:22.842Z,9.60
2023-05-02T06:21:50.815Z,9.60
2023-05-02T06:24:18.891Z,9.70
2023-05-02T06:26:47.318Z,9.70
2023-05-02T06:29:16.672Z,9.70
2023-05-02T06:31:45.323Z,9.70
2023-05-02T06:34:13.335Z,9.90
2023-05-02T06:36:41.264Z,9.80
2023-05-02T06:39:09.329Z,9.70
2023-05-02T06:41:37.287Z,9.80
2023-05-02T06:44:05.557Z,9.80
2023-05-02T06:46:35.972Z,9.90
2023-05-02T06:49:03.982Z,9.90
2023-05-02T06:51:32.165Z,10.00
2023-05-02T06:54:00.192Z,10.10
2023-05-02T06:56:28.424Z,10.20
2023-05-02T06:58:56.394Z,10.30
2023-05-02T07:01:24.390Z,10.30
2023-05-02T07:03:54.384Z,10.50
2023-05-02T07:06:22.583Z,10.50
2023-05-02T07:08:50.660Z,10.60
2023-05-02T07:11:19.371Z,10.70
2023-05-02T07:13:47.432Z,10.80
2023-05-02T07:16:15.566Z,10.90
2023-05-02T07:18:45.743Z,10.90
2023-05-02T07:21:15.139Z,10.90
2023-05-02T07:23:43.212Z,10.90
2023-05-02T07:26:11.347Z,10.90
2023-05-02T07:28:39.328Z,10.90
2023-05-02T07:31:07.361Z,11.00
2023-05-02T07:33:35.398Z,11.00
2023-05-02T07:36:03.655Z,11.10
2023-05-02T07:38:33.034Z,11.10
2023-05-02T07:41:02.171Z,11.20
2023-05-02T07:43:30.180Z,11.30
2023-05-02T07:45:58.404Z,11.50
2023-05-02T07:48:27.815Z,11.50
2023-05-02T07:50:55.998Z,11.50
2023-05-02T07:53:24.207Z,11.50
2023-05-02T07:55:53.505Z,11.60
2023-05-02T07:58:21.490Z,11.60
2023-05-02T08:00:50.396Z,11.70
2023-05-02T08:03:18.586Z,11.80
2023-05-02T08:05:46.697Z,12.00
2023-05-02T08:08:14.744Z,12.30
2023-05-02T08:10:42.677Z,12.40
2023-05-02T08:13:12.273Z,12.30
2023-05-02T08:15:40.348Z,12.30
2023-05-02T08:18:09.492Z,12.40
2023-05-02T08:20:37.434Z,12.30
2023-05-02T08:23:05.421Z,12.30
2023-05-02T08:25:33.493Z,12.20
2023-05-02T08:28:01.472Z,12.30
2023-05-02T08:30:30.822Z,12.20
2023-05-02T08:32:58.848Z,12.30
2023-05-02T08:35:26.987Z,12.40
2023-05-02T08:37:54.951Z,12.40
2023-05-02T08:40:34.087Z,12.50
2023-05-02T08:43:09.405Z,12.60
2023-05-02T08:45:41.586Z,12.70
2023-05-02T08:48:11.830Z,12.70
2023-05-02T08:50:41.633Z,12.80
2023-05-02T08:53:11.330Z,12.90
2023-05-02T08:55:41.111Z,13.10
2023-05-02T08:58:10.798Z,13.20
2023-05-02T09:00:42.588Z,13.20
2023-05-02T09:03:23.792Z,13.30
2023-05-02T09:05:55.267Z,13.30
2023-05-02T09:08:24.799Z,13.30
2023-05-02T09:10:53.112Z,13.50
2023-05-02T09:13:35.617Z,13.60
2023-05-02T09:16:06.745Z,13.80
2023-05-02T09:18:37.428Z,14.20
2023-05-02T09:21:08.977Z,14.60
2023-05-02T09:23:41.546Z,14.50
2023-05-02T09:26:18.802Z,14.60
2023-05-02T09:28:48.455Z,14.70
2023-05-02T09:31:27.061Z,15.00
2023-05-02T09:34:10.820Z,15.00
2023-05-02T09:36:41.766Z,15.10
2023-05-02T09:39:15.171Z,15.20
2023-05-02T09:41:43.687Z,15.00
2023-05-02T09:44:12.683Z,15.10
2023-05-02T09:46:46.513Z,15.30
2023-05-02T09:49:18.638Z,15.60
2023-05-02T09:51:47.421Z,15.70
2023-05-02T09:54:15.480Z,16.00
2023-05-02T09:56:57.337Z,16.30
2023-05-02T09:59:25.944Z,16.30
2023-05-02T10:01:59.306Z,16.60
2023-05-02T10:04:28.150Z,16.80
2023-05-02T10:06:56.961Z,17.10
2023-05-02T10:09:26.618Z,17.00
2023-05-02T10:11:57.938Z,17.00
2023-05-02T10:14:29.613Z,17.10
2023-05-02T10:19:32.181Z,17.50
2023-05-02T10:22:01.278Z,17.60
2023-05-02T10:24:29.950Z,17.60
2023-05-02T10:26:58.188Z,17.90
2023-05-02T10:29:30.183Z,18.10
2023-05-02T10:31:58.928Z,18.20
2023-05-02T10:34:28.604Z,18.00
2023-05-02T10:37:01.327Z,17.70
2023-05-02T10:39:29.958Z,18.00
2023-05-02T10:41:59.919Z,18.40
2023-05-02T10:44:35.306Z,18.00
2023-05-02T10:47:18.922Z,17.60
2023-05-02T10:49:54.294Z,17.60
2023-05-02T10:52:31.673Z,17.60
2023-05-02T10:55:16.506Z,17.60
2023-05-02T10:58:17.856Z,17.50
2023-05-02T11:00:46.282Z,16.90
2023-05-02T11:03:14.570Z,17.10
2023-05-02T11:06:07.326Z,17.40
2023-05-02T11:08:37.009Z,17.50
2023-05-02T11:11:42.387Z,17.30
2023-05-02T11:14:11.000Z,17.20
2023-05-02T11:17:09.037Z,17.10
2023-05-02T11:20:25.852Z,16.90
2023-05-02T11:22:54.832Z,16.80
2023-05-02T11:25:43.521Z,16.70
2023-05-02T11:28:41.357Z,16.80
2023-05-02T11:31:10.833Z,16.90
2023-05-02T11:33:38.910Z,17.00
2023-05-02T11:36:07.768Z,17.10
2023-05-02T11:38:38.315Z,17.10
2023-05-02T11:41:07.996Z,16.90
2023-05-02T11:43:36.488Z,16.40
2023-05-02T11:46:06.045Z,16.30
2023-05-02T11:48:34.263Z,16.50
2023-05-02T11:51:07.198Z,17.00
2023-05-02T11:53:41.506Z,17.60
2023-05-02T11:56:11.471Z,18.10
2023-05-02T11:58:39.440Z,18.10
2023-05-02T12:01:14.735Z,18.20
2023-05-02T12:03:43.377Z,18.40
2023-05-02T12:06:14.540Z,18.00
2023-05-02T12:08:44.989Z,17.90
2023-05-02T12:11:16.620Z,18.30
2023-05-02T12:13:50.117Z,18.50
2023-05-02T12:16:19.267Z,18.40
2023-05-02T12:18:48.944Z,18.30
2023-05-02T12:21:17.919Z,18.30
2023-05-02T12:23:46.492Z,18.10
2023-05-02T12:26:25.254Z,17.60
2023-05-02T12:28:54.780Z,17.30
2023-05-02T12:31:23.788Z,17.30
2023-05-02T12:33:52.641Z,17.20
2023-05-02T12:36:21.019Z,16.70
2023-05-02T12:38:55.040Z,16.60
2023-05-02T12:41:35.413Z,16.70
2023-05-02T12:44:03.564Z,17.00
2023-05-02T12:46:32.100Z,17.40
2023-05-02T12:49:05.736Z,17.70
2023-05-02T12:51:34.605Z,17.80
2023-05-02T12:54:02.983Z,17.40
2023-05-02T12:56:33.170Z,17.40
2023-05-02T12:59:05.358Z,17.40
2023-05-02T13:01:35.005Z,17.10
2023-05-02T13:04:03.458Z,17.20
2023-05-02T13:06:31.729Z,17.30
2023-05-02T13:09:00.219Z,17.70
2023-05-02T13:11:28.250Z,18.10
2023-05-02T13:13:56.577Z,18.50
2023-05-02T13:16:26.794Z,18.40
2023-05-02T13:18:55.073Z,18.50
2023-05-02T13:21:23.050Z,18.70
2023-05-02T13:23:52.316Z,18.70
2023-05-02T13:26:21.192Z,18.50
2023-05-02T13:28:49.405Z,18.30
2023-05-02T13:31:17.423Z,18.10
2023-05-02T13:33:47.294Z,18.00
2023-05-02T13:36:15.434Z,18.00
2023-05-02T13:38:43.461Z,18.10
2023-05-02T13:41:11.601Z,18.20
2023-05-02T13:43:40.773Z,18.20
2023-05-02T13:46:09.227Z,18.20
2023-05-02T13:48:38.152Z,18.10
2023-05-02T13:51:07.828Z,18.10
2023-05-02T13:53:36.035Z,18.40
2023-05-02T13:56:07.408Z,18.40
2023-05-02T13:58:35.668Z,18.50
2023-05-02T14:01:04.402Z,18.60
2023-05-02T14:03:32.545Z,18.90
2023-05-02T14:06:00.680Z,19.00
2023-05-02T14:08:30.272Z,19.10
2023-05-02T14:10:58.199Z,19.10
2023-05-02T14:13:26.281Z,18.90
2023-05-02T14:15:55.573Z,18.80
2023-05-02T14:18:23.583Z,18.80
2023-05-02T14:20:51.770Z,18.60
2023-05-02T14:23:19.733Z,18.70
2023-05-02T14:25:49.033Z,19.00
2023-05-02T14:28:17.010Z,19.20
2023-05-02T14:30:45.045Z,19.30
2023-05-02T14:33:13.300Z,19.50
2023-05-02T14:35:41.540Z,19.60
2023-05-02T14:38:09.817Z,19.70
2023-05-02T14:40:38.188Z,19.70
2023-05-02T14:43:08.403Z,19.80
2023-05-02T14:45:36.392Z,19.80
2023-05-02T14:48:04.555Z,19.60
2023-05-02T14:50:32.506Z,19.50
2023-05-02T14:53:00.488Z,19.40
2023-05-02T14:55:28.583Z,19.30
2023-05-02T14:57:58.045Z,19.10
2023-05-02T15:00:27.564Z,18.90
2023-05-02T15:02:55.940Z,18.60
2023-05-02T15:05:24.352Z,18.50
2023-05-02T15:07:52.311Z,18.30
2023-05-02T15:10:20.357Z,18.20
2023-05-02T15:12:50.864Z,18.10
2023-05-02T15:15:19.026Z,18.20
2023-05-02T15:17:48.433Z,18.20
2023-05-02T15:20:16.449Z,18.20
2023-05-02T15:22:44.473Z,18.10
2023-05-02T15:25:12.624Z,18.20
2023-05-02T15:27:41.692Z,18.00
2023-05-02T15:30:10.738Z,18.00
2023-05-02T15:32:38.836Z,18.00
2023-05-02T15:35:09.315Z,18.10
2023-05-02T15:37:37.348Z,18.10
2023-05-02T15:40:06.903Z,18.10
2023-05-02T15:42:37.154Z,18.10
2023-05-02T15:45:06.417Z,18.00
2023-05-02T15:47:34.456Z,18.00
2023-05-02T15:50:03.231Z,18.00
2023-05-02T15:52:32.907Z,17.80
2023-05-02T15:55:01.653Z,17.90
2023-05-02T15:57:29.780Z,17.90
2023-05-02T15:59:57.765Z,17.90
2023-05-02T16:02:26.098Z,17.90
2023-05-02T16:04:54.120Z,17.80
2023-05-02T16:07:22.169Z,17.80
2023-05-02T16:09:52.255Z,17.90
2023-05-02T16:12:21.205Z,17.80
2023-05-02T16:14:49.329Z,17.90
2023-05-02T16:17:17.378Z,17.90
2023-05-02T16:19:45.391Z,17.90
2023-05-02T16:22:13.367Z,17.90
2023-05-02T16:24:41.405Z,17.90
2023-05-02T16:27:10.860Z,17.80
2023-05-02T16:29:38.877Z,17.90
2023-05-02T16:32:08.264Z,17.90
2023-05-02T16:34:37.263Z,17.90
2023-05-02T16:37:05.459Z,17.90
2023-05-02T16:39:34.950Z,17.70
2023-05-02T16:42:03.262Z,17.70
2023-05-02T16:44:32.743Z,17.60
2023-05-02T16:47:01.152Z,17.60
2023-05-02T16:49:29.233Z,17.60
2023-05-02T16:51:57.756Z,17.50
2023-05-02T16:54:25.897Z,17.60
2023-05-02T16:56:54.405Z,17.50
2023-05-02T16:59:22.396Z,17.50
2023-05-02T17:01:51.815Z,17.40
2023-05-02T17:04:20.891Z,17.30
2023-05-02T17:06:48.946Z,17.20
2023-05-02T17:09:18.513Z,17.10
2023-05-02T17:11:46.564Z,16.90
2023-05-02T17:14:15.474Z,16.90
2023-05-02T17:16:43.804Z,16.80
2023-05-02T17:19:13.186Z,16.70
2023-05-02T17:21:41.398Z,16.70
2023-05-02T17:24:09.964Z,16.70
2023-05-02T17:26:38.037Z,16.70
2023-05-02T17:29:06.104Z,16.70
2023-05-02T17:31:34.203Z,16.70
2023-05-02T17:34:02.401Z,16.70
2023-05-02T17:36:32.749Z,16.70
2023-05-02T17:39:00.841Z,16.60
2023-05-02T17:41:28.917Z,16.40
2023-05-02T17:43:57.186Z,16.40
2023-05-02T17:46:25.904Z,16.30
2023-05-02T17:48:53.977Z,16.30
2023-05-02T17:51:22.045Z,16.30
2023-05-02T17:53:53.465Z,16.20
2023-05-02T17:56:21.939Z,16.10
2023-05-02T17:58:50.108Z,16.10
2023-05-02T18:01:18.135Z,16.10
2023-05-02T18:03:47.511Z,16.10
2023-05-02T18:06:19.658Z,16.00
2023-05-02T18:08:47.744Z,15.90
2023-05-02T18:11:17.826Z,15.80
2023-05-02T18:13:46.386Z,15.70
2023-05-02T18:16:14.881Z,15.70
2023-05-02T18:18:43.011Z,15.60
2023-05-02T18:21:11.662Z,15.50
2023-05-02T18:23:40.154Z,15.40
2023-05-02T18:26:14.000Z,15.40
2023-05-02T18:28:45.159Z,15.40
2023-05-02T18:31:19.140Z,15.30
2023-05-02T18:33:47.723Z,15.30
2023-05-02T18:36:19.311Z,15.20
2023-05-02T18:38:47.482Z,15.10
2023-05-02T18:41:15.509Z,15.10
2023-05-02T18:43:44.786Z,15.00
2023-05-02T18:46:13.072Z,15.20
2023-05-02T18:48:41.164Z,15.00
2023-05-02T18:51:09.581Z,14.90
2023-05-02T18:53:37.745Z,14.90
2023-05-02T18:56:13.431Z,14.90
2023-05-02T18:58:41.515Z,14.80
2023-05-02T19:01:20.226Z,14.70
2023-05-02T19:03:48.838Z,14.70
2023-05-02T19:06:18.659Z,14.70
2023-05-02T19:08:47.072Z,14.60
2023-05-02T19:11:15.342Z,14.50
2023-05-02T19:13:43.344Z,14.40
2023-05-02T19:16:13.479Z,14.30
2023-05-02T19:18:43.587Z,14.30
2023-05-02T19:21:13.795Z,14.30
2023-05-02T19:23:42.943Z,14.40
2023-05-02T19:26:14.792Z,14.30
2023-05-02T19:28:43.541Z,14.30
2023-05-02T19:31:12.363Z,14.10
2023-05-02T19:33:49.910Z,13.90
2023-05-02T19:36:18.813Z,13.80
2023-05-02T19:38:48.998Z,13.70
2023-05-02T19:41:17.226Z,13.70
2023-05-02T19:43:45.635Z,13.60
2023-05-02T19:46:15.178Z,13.40
2023-05-02T19:48:44.746Z,13.30
2023-05-02T19:51:13.053Z,13.20
2023-05-02T19:53:41.252Z,13.10
2023-05-02T19:56:09.354Z,13.10
2023-05-02T19:58:37.618Z,12.90
2023-05-02T20:01:05.842Z,12.80
2023-05-02T20:03:35.002Z,12.70
2023-05-02T20:06:05.098Z,12.60
2023-05-02T20:08:33.217Z,12.50
2023-05-02T20:11:01.359Z,12.40
2023-05-02T20:13:29.485Z,12.30
2023-05-02T20:15:57.591Z,12.20
2023-05-02T20:18:26.772Z,12.20
2023-05-02T20:20:55.099Z,12.20
2023-05-02T20:23:24.589Z,12.20
2023-05-02T20:25:53.452Z,12.20
2023-05-02T20:28:21.874Z,12.20
2023-05-02T20:30:49.928Z,12.00
2023-05-02T20:33:18.380Z,11.90
2023-05-02T20:35:47.391Z,11.90
2023-05-02T20:38:17.783Z,11.90
2023-05-02T20:40:50.595Z,11.80
2023-05-02T20:43:20.208Z,11.70
2023-05-02T20:45:48.488Z,11.70
2023-05-02T20:48:17.967Z,11.70
2023-05-02T20:50:54.343Z,11.60
2023-05-02T20:53:24.170Z,11.60
2023-05-02T20:55:57.096Z,11.50
2023-05-02T20:58:25.258Z,11.50
2023-05-02T21:00:54.403Z,11.30
2023-05-02T21:03:23.687Z,11.10
2023-05-02T21:05:55.193Z,11.10
2023-05-02T21:08:24.567Z,11.10
2023-05-02T21:10:55.294Z,11.10
2023-05-02T21:13:23.715Z,11.00
2023-05-02T21:15:52.063Z,11.00
2023-05-02T21:18:23.834Z,11.00
2023-05-02T21:20:53.931Z,11.10
2023-05-02T21:23:22.585Z,11.00
2023-05-02T21:25:50.767Z,11.00
2023-05-02T21:28:20.244Z,10.70
2023-05-02T21:30:51.625Z,10.70
2023-05-02T21:33:20.034Z,10.50
2023-05-02T21:35:48.118Z,10.40
2023-05-02T21:38:16.745Z,10.30
2023-05-02T21:40:44.960Z,10.20
2023-05-02T21:43:13.557Z,10.20
2023-05-02T21:45:46.853Z,10.20
2023-05-02T21:48:15.587Z,10.30
2023-05-02T21:50:44.579Z,10.30
2023-05-02T21:53:12.887Z,10.20
2023-05-02T21:55:41.561Z,10.10
2023-05-02T21:58:11.555Z,10.10
2023-05-02T22:00:40.765Z,10.20
2023-05-02T22:03:11.959Z,10.20
2023-05-02T22:05:41.345Z,10.20
2023-05-02T22:08:11.130Z,10.20
2023-05-02T22:10:39.980Z,10.10
2023-05-02T22:13:09.632Z,10.10
2023-05-02T22:15:37.804Z,10.10
2023-05-02T22:18:07.019Z,10.10
2023-05-02T22:20:36.491Z,10.10
2023-05-02T22:23:04.989Z,10.10
2023-05-02T22:25:33.040Z,10.10
2023-05-02T22:28:03.993Z,10.00
2023-05-02T22:30:32.074Z,10.00
2023-05-02T22:33:00.249Z,9.90
2023-05-02T22:35:28.524Z,9.80
2023-05-02T22:38:01.984Z,9.70
2023-05-02T22:40:31.525Z,9.70
2023-05-02T22:42:59.848Z,9.80
2023-05-02T22:45:28.112Z,9.80
2023-05-02T22:47:56.296Z,9.80
2023-05-02T22:50:26.237Z,9.70
2023-05-02T22:52:57.025Z,9.60
2023-05-02T22:55:26.937Z,9.60
2023-05-02T22:57:55.080Z,9.60
2023-05-02T23:00:23.620Z,9.60
2023-05-02T23:02:51.891Z,9.60
2023-05-02T23:05:20.361Z,9.50
2023-05-02T23:07:48.604Z,9.60
2023-05-02T23:10:16.897Z,9.60
2023-05-02T23:12:46.397Z,9.50
2023-05-02T23:15:14.397Z,9.40
2023-05-02T23:17:43.013Z,9.40
2023-05-02T23:20:12.188Z,9.40
2023-05-02T23:22:45.637Z,9.40
2023-05-02T23:25:16.835Z,9.40
2023-05-02T23:27:46.295Z,9.40
2023-05-02T23:30:14.684Z,9.20
2023-05-02T23:32:42.943Z,9.10
2023-05-02T23:35:12.379Z,9.10
2023-05-02T23:37:41.040Z,9.10
2023-05-02T23:40:10.264Z,9.00
2023-05-02T23:42:40.387Z,8.90
2023-05-02T23:45:11.227Z,9.00
2023-05-02T23:47:39.368Z,8.90
2023-05-02T23:50:08.653Z,8.90
2023-05-02T23:52:36.729Z,8.90
2023-05-02T23:55:10.262Z,8.90
2023-05-02T23:57:38.725Z,8.80
